Time;durP1;ratioP1;P1;durP2;ratioP2;P2;SDS_P1;SDS_P2;PMS_P1;PMS_P2;Temp;Humidity;BMP_temperature;BMP_pressure;BME280_temperature;BME280_humidity;BME280_pressure;Samples;Min_cycle;Max_cycle;Signal;HPM_P1;HPM_P2
2021/07/14 00:00:13;;;;;;;36.63;23.20;;;20.20;93.70;;;;;;5052553;28;20029;-72
2021/07/14 00:02:39;;;;;;;30.98;22.17;;;20.20;93.70;;;;;;5053350;28;20465;-72
2021/07/14 00:05:13;;;;;;;30.90;20.98;;;20.30;93.70;;;;;;5052868;28;20040;-73
2021/07/14 00:07:39;;;;;;;32.33;22.42;;;20.20;93.70;;;;;;5053779;28;20461;-72
2021/07/14 00:10:11;;;;;;;33.53;23.10;;;20.30;93.70;;;;;;5052501;28;20033;-73
2021/07/14 00:12:46;;;;;;;30.08;20.55;;;20.30;93.70;;;;;;5053373;28;20087;-71
2021/07/14 00:23:13;;;;;;;27.98;20.05;;;20.20;93.60;;;;;;5053661;28;20040;-72
2021/07/14 00:25:39;;;;;;;31.98;21.17;;;20.20;93.60;;;;;;5053510;28;20052;-72
2021/07/14 00:28:05;;;;;;;31.58;20.65;;;20.20;93.60;;;;;;5041006;28;20037;-72
2021/07/14 00:30:31;;;;;;;29.48;21.35;;;20.20;93.60;;;;;;5032034;28;20034;-72
2021/07/14 00:32:57;;;;;;;30.48;20.23;;;20.20;93.60;;;;;;5033258;28;20033;-72
2021/07/14 00:35:23;;;;;;;35.67;23.17;;;20.20;93.60;;;;;;5033218;28;20041;-72
2021/07/14 00:37:49;;;;;;;27.65;19.90;;;20.20;93.60;;;;;;5033235;28;20065;-72
2021/07/14 00:40:15;;;;;;;32.95;22.00;;;20.20;93.60;;;;;;5032028;28;20021;-72
2021/07/14 00:42:42;;;;;;;29.25;20.92;;;20.20;93.60;;;;;;5033507;28;20449;-72
2021/07/14 00:45:09;;;;;;;29.13;19.95;;;20.20;93.60;;;;;;5033324;28;20447;-74
2021/07/14 00:47:36;;;;;;;30.38;20.55;;;20.20;93.60;;;;;;5031759;28;20116;-72
2021/07/14 00:50:04;;;;;;;28.65;19.80;;;20.20;93.60;;;;;;5038041;28;20481;-73
2021/07/14 00:52:31;;;;;;;29.65;20.58;;;20.20;93.60;;;;;;5056175;28;20496;-72
2021/07/14 00:54:57;;;;;;;28.52;20.83;;;20.20;93.60;;;;;;5057445;28;20085;-72
2021/07/14 00:57:26;;;;;;;28.55;21.65;;;20.20;93.60;;;;;;5039355;28;20029;-72
2021/07/14 00:59:52;;;;;;;26.83;19.73;;;20.20;93.60;;;;;;5056259;28;20040;-72
2021/07/14 01:02:18;;;;;;;28.23;20.88;;;20.20;93.50;;;;;;5056890;28;20041;-74
2021/07/14 01:04:51;;;;;;;33.03;21.50;;;20.20;93.60;;;;;;5056237;28;20025;-72
2021/07/14 01:07:23;;;;;;;26.63;20.17;;;20.20;93.60;;;;;;5057226;28;20027;-72
2021/07/14 01:10:03;;;;;;;30.83;21.45;;;20.20;93.60;;;;;;5056899;28;20108;-72
2021/07/14 01:12:53;;;;;;;33.13;21.73;;;20.10;93.60;;;;;;5056994;28;20032;-73
2021/07/14 01:15:21;;;;;;;29.25;20.27;;;20.10;93.60;;;;;;5056979;28;20048;-72
2021/07/14 01:17:51;;;;;;;30.58;21.70;;;20.10;93.60;;;;;;5055555;28;20096;-72
2021/07/14 01:20:29;;;;;;;28.73;21.15;;;20.10;93.60;;;;;;5054924;28;20048;-72
2021/07/14 01:23:28;;;;;;;26.65;18.02;;;20.10;93.60;;;;;;5038836;28;20034;-72
2021/07/14 01:26:33;;;;;;;29.35;20.58;;;20.10;93.60;;;;;;5035391;28;20026;-72
2021/07/14 01:29:06;;;;;;;26.08;19.73;;;20.10;93.60;;;;;;5034839;28;20464;-72
2021/07/14 01:31:37;;;;;;;29.13;20.30;;;20.10;93.60;;;;;;5036701;28;20036;-73
2021/07/14 01:34:06;;;;;;;27.95;19.52;;;20.10;93.60;;;;;;5036899;28;20021;-73
2021/07/14 01:36:34;;;;;;;28.63;19.73;;;20.10;93.60;;;;;;5036318;28;20386;-78
2021/07/14 01:39:01;;;;;;;30.70;20.83;;;20.10;93.60;;;;;;5035500;28;20060;-78
2021/07/14 01:41:33;;;;;;;28.85;20.25;;;20.10;93.60;;;;;;5036807;28;20057;-78
2021/07/14 01:44:00;;;;;;;30.20;20.75;;;20.20;93.70;;;;;;5034968;28;20035;-77
2021/07/14 01:46:30;;;;;;;25.65;19.48;;;20.10;93.70;;;;;;5035029;28;20041;-78
2021/07/14 01:48:57;;;;;;;28.35;18.98;;;20.10;93.70;;;;;;5035136;28;20021;-77
2021/07/14 01:51:24;;;;;;;25.20;19.85;;;20.10;93.80;;;;;;5037023;28;20370;-78
2021/07/14 01:53:50;;;;;;;27.15;19.50;;;20.10;93.80;;;;;;5034957;28;20171;-77
2021/07/14 01:56:15;;;;;;;26.05;19.77;;;20.10;93.90;;;;;;5018750;28;20036;-78
2021/07/14 01:58:47;;;;;;;27.10;19.63;;;20.10;93.90;;;;;;5035086;28;20397;-77
2021/07/14 02:01:17;;;;;;;30.50;20.30;;;20.00;93.90;;;;;;5034443;28;20417;-77
2021/07/14 02:06:32;;;;;;;29.20;19.27;;;20.00;94.00;;;;;;5056118;28;20036;-77
2021/07/14 02:08:57;;;;;;;31.90;20.38;;;20.00;94.00;;;;;;5055168;28;20397;-77
2021/07/14 02:11:25;;;;;;;29.05;20.00;;;20.00;94.10;;;;;;5054394;28;20021;-77
2021/07/14 02:13:52;;;;;;;29.30;21.00;;;20.00;94.10;;;;;;5055660;28;20091;-77
2021/07/14 02:16:19;;;;;;;33.63;21.98;;;19.90;94.20;;;;;;5054762;28;20131;-77
2021/07/14 02:18:52;;;;;;;28.08;20.13;;;19.90;94.20;;;;;;5055860;28;20468;-77
2021/07/14 02:21:18;;;;;;;31.10;19.77;;;20.00;94.30;;;;;;5051399;28;20033;-77
2021/07/14 02:23:43;;;;;;;31.98;20.77;;;19.90;94.30;;;;;;5035566;28;20292;-77
2021/07/14 02:26:09;;;;;;;35.30;20.95;;;19.90;94.40;;;;;;5018190;28;20092;-78
2021/07/14 02:28:35;;;;;;;34.20;23.35;;;19.90;94.50;;;;;;5017993;28;20018;-78
2021/07/14 02:31:00;;;;;;;36.88;22.05;;;19.90;94.70;;;;;;5034161;28;20018;-77
2021/07/14 02:33:26;;;;;;;33.65;22.35;;;19.80;94.70;;;;;;5035407;28;20045;-79
2021/07/14 02:35:55;;;;;;;37.88;21.33;;;19.80;94.70;;;;;;5034553;28;20040;-77
2021/07/14 02:38:31;;;;;;;29.63;19.58;;;19.80;94.80;;;;;;5035395;28;20024;-77
2021/07/14 02:41:28;;;;;;;29.10;19.02;;;19.70;94.70;;;;;;5035376;28;20025;-78
2021/07/14 02:44:08;;;;;;;35.08;21.58;;;19.70;94.80;;;;;;5033935;28;20057;-77
2021/07/14 02:46:37;;;;;;;31.33;20.70;;;19.70;94.80;;;;;;5017747;28;20064;-77
2021/07/14 02:49:06;;;;;;;34.28;21.23;;;19.80;94.80;;;;;;5035629;28;20100;-77
2021/07/14 02:51:34;;;;;;;35.08;23.38;;;19.70;94.80;;;;;;5035316;28;20071;-77
2021/07/14 02:54:04;;;;;;;35.95;22.33;;;19.70;94.90;;;;;;5041936;28;20024;-78
2021/07/14 02:56:31;;;;;;;35.78;23.20;;;19.70;94.90;;;;;;5053630;28;20433;-78
2021/07/14 02:59:09;;;;;;;38.70;22.30;;;19.70;95.00;;;;;;5054882;28;20025;-78
2021/07/14 03:01:40;;;;;;;33.35;21.67;;;19.70;95.00;;;;;;5054654;28;20361;-77
2021/07/14 03:04:07;;;;;;;33.58;21.27;;;19.70;95.00;;;;;;5054503;28;20083;-78
2021/07/14 03:06:34;;;;;;;39.03;21.58;;;19.70;95.00;;;;;;5053391;28;20108;-78
2021/07/14 03:09:04;;;;;;;35.72;23.52;;;19.70;95.10;;;;;;5055073;28;20029;-77
2021/07/14 03:11:36;;;;;;;37.65;23.05;;;19.70;95.10;;;;;;5053498;28;20481;-78
2021/07/14 03:14:03;;;;;;;36.67;23.52;;;19.70;95.20;;;;;;5053942;28;20111;-76
2021/07/14 03:16:31;;;;;;;36.38;23.98;;;19.70;95.20;;;;;;5054640;28;20385;-78
2021/07/14 03:18:57;;;;;;;35.15;22.30;;;19.70;95.20;;;;;;5054375;28;20021;-77
2021/07/14 03:21:24;;;;;;;33.08;21.98;;;19.70;95.20;;;;;;5053179;28;20393;-77
2021/07/14 03:23:50;;;;;;;35.30;21.42;;;19.70;95.20;;;;;;5051407;28;20434;-76
2021/07/14 03:26:16;;;;;;;37.85;22.55;;;19.70;95.20;;;;;;5034355;28;20033;-77
2021/07/14 03:28:42;;;;;;;34.42;20.58;;;19.70;95.20;;;;;;5033098;28;20029;-78
2021/07/14 03:31:09;;;;;;;39.08;23.60;;;19.70;95.20;;;;;;5016530;28;20040;-77
2021/07/14 03:33:34;;;;;;;33.15;20.48;;;19.70;95.20;;;;;;5033114;28;20028;-77
2021/07/14 03:36:03;;;;;;;36.33;23.33;;;19.70;95.20;;;;;;5033229;28;20037;-77
2021/07/14 03:38:31;;;;;;;34.97;23.27;;;19.70;95.20;;;;;;5034022;28;20017;-78
2021/07/14 03:40:58;;;;;;;37.22;23.35;;;19.70;95.20;;;;;;5033987;28;20037;-77
2021/07/14 03:43:25;;;;;;;34.03;23.33;;;19.70;95.20;;;;;;5032588;28;20108;-77
2021/07/14 03:45:52;;;;;;;32.30;23.63;;;19.70;95.20;;;;;;5033012;28;20030;-77
2021/07/14 03:48:19;;;;;;;36.50;24.42;;;19.70;95.20;;;;;;5032783;28;20359;-79
2021/07/14 03:50:49;;;;;;;39.20;25.30;;;19.70;95.30;;;;;;5033902;28;20079;-78
2021/07/14 03:53:20;;;;;;;31.73;22.45;;;19.70;95.20;;;;;;5033747;28;20034;-79
2021/07/14 03:55:47;;;;;;;31.00;22.58;;;19.60;95.20;;;;;;5034158;28;20108;-78
2021/07/14 03:58:12;;;;;;;33.05;21.58;;;19.60;95.10;;;;;;5032321;28;20029;-79
2021/07/14 04:00:38;;;;;;;33.55;20.98;;;19.60;95.10;;;;;;5032834;28;20033;-77
2021/07/14 04:03:07;;;;;;;34.85;22.45;;;19.60;95.10;;;;;;5048723;28;20121;-77
2021/07/14 04:05:34;;;;;;;34.85;22.00;;;19.60;95.10;;;;;;5043377;28;20017;-77
2021/07/14 04:08:01;;;;;;;34.35;21.95;;;19.60;95.10;;;;;;5051181;28;20395;-77
2021/07/14 04:10:26;;;;;;;31.80;20.05;;;19.60;95.10;;;;;;5052324;28;20032;-77
2021/07/14 04:12:52;;;;;;;33.05;21.25;;;19.60;95.10;;;;;;5052010;28;20093;-78
2021/07/14 04:15:18;;;;;;;25.30;19.58;;;19.60;95.20;;;;;;5052018;28;20413;-79
2021/07/14 04:17:43;;;;;;;31.00;20.27;;;19.60;95.20;;;;;;5053616;28;20360;-78
2021/07/14 04:20:10;;;;;;;31.80;20.52;;;19.60;95.20;;;;;;5052309;28;20033;-77
2021/07/14 04:22:35;;;;;;;29.27;20.88;;;19.60;95.20;;;;;;5035606;28;20459;-77
2021/07/14 04:25:01;;;;;;;31.50;19.85;;;19.60;95.20;;;;;;5053062;28;20025;-78
2021/07/14 04:27:27;;;;;;;31.75;20.67;;;19.50;95.20;;;;;;5053286;28;20050;-78
2021/07/14 04:29:52;;;;;;;29.48;18.38;;;19.50;95.20;;;;;;5051943;28;20033;-78
2021/07/14 04:32:18;;;;;;;31.05;19.83;;;19.50;95.20;;;;;;5052109;28;20123;-79
2021/07/14 04:34:44;;;;;;;28.20;18.88;;;19.50;95.20;;;;;;5052101;28;20071;-77
2021/07/14 04:37:09;;;;;;;31.35;20.50;;;19.50;95.10;;;;;;5052071;28;20112;-77
2021/07/14 04:39:35;;;;;;;28.00;16.92;;;19.50;95.10;;;;;;5053256;28;20025;-77
2021/07/14 04:42:01;;;;;;;29.85;18.33;;;19.50;95.10;;;;;;5052325;28;20213;-78
2021/07/14 04:44:48;;;;;;;27.23;17.98;;;19.50;95.10;;;;;;5035028;28;20481;-77
2021/07/14 04:47:14;;;;;;;29.48;18.58;;;19.50;95.10;;;;;;5052145;28;20037;-77
2021/07/14 04:49:40;;;;;;;25.08;17.55;;;19.50;95.10;;;;;;5035464;28;20029;-77
2021/07/14 04:52:06;;;;;;;23.38;17.00;;;19.50;95.10;;;;;;5017535;28;20029;-77
2021/07/14 04:54:31;;;;;;;24.73;16.80;;;19.50;95.10;;;;;;5031530;28;20076;-77
2021/07/14 04:56:57;;;;;;;27.15;18.70;;;19.50;95.00;;;;;;5033191;28;20059;-76
2021/07/14 04:59:24;;;;;;;28.13;18.85;;;19.50;95.00;;;;;;5033212;28;20037;-76
2021/07/14 05:01:50;;;;;;;30.35;18.73;;;19.50;95.00;;;;;;5034377;28;20044;-76
2021/07/14 05:04:15;;;;;;;27.02;18.42;;;19.50;95.00;;;;;;5044812;28;20045;-77
2021/07/14 05:06:41;;;;;;;21.63;16.52;;;19.50;95.00;;;;;;5031798;28;20037;-77
2021/07/14 05:09:07;;;;;;;26.50;16.98;;;19.50;95.00;;;;;;5032913;28;20022;-78
2021/07/14 05:11:32;;;;;;;23.05;15.63;;;19.60;95.00;;;;;;5031545;28;20029;-77
2021/07/14 05:13:58;;;;;;;26.58;17.33;;;19.50;94.90;;;;;;5031661;28;20032;-78
2021/07/14 05:16:24;;;;;;;27.38;17.98;;;19.50;94.90;;;;;;5046646;28;20102;-77
2021/07/14 05:18:49;;;;;;;25.80;16.17;;;19.60;94.90;;;;;;5038913;28;20033;-78
2021/07/14 05:21:15;;;;;;;26.88;17.45;;;19.50;94.90;;;;;;5049794;28;20029;-78
2021/07/14 05:23:41;;;;;;;23.73;17.02;;;19.60;94.90;;;;;;5040639;28;20084;-78
2021/07/14 05:26:06;;;;;;;24.73;15.52;;;19.50;94.80;;;;;;5035315;28;20057;-78
2021/07/14 05:28:32;;;;;;;25.98;16.40;;;19.50;94.80;;;;;;5043685;28;20100;-78
2021/07/14 05:30:57;;;;;;;24.25;17.17;;;19.50;94.80;;;;;;5047511;28;20034;-77
2021/07/14 05:33:23;;;;;;;19.85;14.90;;;19.60;94.80;;;;;;5035408;28;20108;-78
2021/07/14 05:35:49;;;;;;;20.95;14.48;;;19.60;94.80;;;;;;5051623;28;20025;-79
2021/07/14 05:38:19;;;;;;;23.20;14.82;;;19.60;94.70;;;;;;5055663;28;20057;-77
2021/07/14 05:40:49;;;;;;;19.40;14.20;;;19.60;94.70;;;;;;5052033;28;20783;-77
2021/07/14 05:43:15;;;;;;;21.30;15.07;;;19.60;94.70;;;;;;5056024;28;20033;-78
2021/07/14 05:45:41;;;;;;;21.88;16.48;;;19.70;94.60;;;;;;5055389;28;20071;-78
2021/07/14 05:48:07;;;;;;;26.10;16.48;;;19.70;94.60;;;;;;5054961;28;20052;-78
2021/07/14 05:50:32;;;;;;;22.00;16.08;;;19.70;94.50;;;;;;5054880;28;20021;-78
2021/07/14 05:52:58;;;;;;;21.55;15.02;;;19.70;94.50;;;;;;5054839;28;20033;-77
2021/07/14 05:55:24;;;;;;;22.50;16.80;;;19.70;94.50;;;;;;5057635;28;20029;-77
2021/07/14 05:57:51;;;;;;;23.73;15.77;;;19.70;94.40;;;;;;5059839;28;20457;-77
2021/07/14 06:00:18;;;;;;;22.65;14.85;;;19.70;94.40;;;;;;5054850;28;20028;-78
2021/07/14 06:02:44;;;;;;;23.58;17.00;;;19.70;94.40;;;;;;5051882;28;20381;-77
2021/07/14 06:05:11;;;;;;;22.63;16.02;;;19.70;94.30;;;;;;5036114;28;20487;-76
2021/07/14 06:07:37;;;;;;;20.50;15.88;;;19.70;94.30;;;;;;5064952;28;20023;-77
2021/07/14 06:10:03;;;;;;;23.65;17.10;;;19.80;94.40;;;;;;5054925;28;20032;-77
2021/07/14 06:12:29;;;;;;;21.67;15.75;;;19.70;94.30;;;;;;5054519;28;20029;-77
2021/07/14 06:14:54;;;;;;;19.98;14.70;;;19.70;94.30;;;;;;5037147;28;20393;-78
2021/07/14 06:17:20;;;;;;;19.80;14.95;;;19.80;94.30;;;;;;5070588;28;20454;-77
2021/07/14 06:19:46;;;;;;;19.33;15.23;;;19.80;94.20;;;;;;5055835;28;20044;-77
2021/07/14 06:22:12;;;;;;;20.10;13.73;;;19.90;94.20;;;;;;5054540;28;20390;-77
2021/07/14 06:24:39;;;;;;;22.67;16.08;;;19.90;94.20;;;;;;5055432;28;20025;-78
2021/07/14 06:27:05;;;;;;;22.17;16.38;;;19.90;94.20;;;;;;5053680;28;20381;-78
2021/07/14 06:29:31;;;;;;;20.88;15.68;;;19.90;94.20;;;;;;5074130;28;20032;-78
2021/07/14 06:31:56;;;;;;;27.00;18.55;;;19.90;94.20;;;;;;5073891;28;20032;-77
2021/07/14 06:34:22;;;;;;;23.77;18.05;;;19.90;94.50;;;;;;5062901;28;20051;-77
2021/07/14 06:36:49;;;;;;;24.30;16.85;;;19.90;94.20;;;;;;5054743;28;20025;-78
2021/07/14 06:39:14;;;;;;;26.45;18.38;;;19.90;94.20;;;;;;5054468;28;20033;-78
2021/07/14 06:41:40;;;;;;;29.75;18.92;;;19.90;94.20;;;;;;5055442;28;20036;-77
2021/07/14 06:44:06;;;;;;;26.42;18.65;;;20.00;94.20;;;;;;5037244;28;20083;-78
2021/07/14 06:46:31;;;;;;;27.58;18.02;;;20.00;94.20;;;;;;5054920;28;20025;-78
2021/07/14 06:48:58;;;;;;;26.30;18.73;;;20.00;94.20;;;;;;5064310;28;20044;-78
2021/07/14 06:51:24;;;;;;;29.42;19.38;;;20.00;94.10;;;;;;5067777;28;20108;-80
2021/07/14 06:53:50;;;;;;;25.23;17.35;;;20.00;94.10;;;;;;5054996;28;20100;-77
2021/07/14 06:56:16;;;;;;;24.55;17.73;;;20.00;94.10;;;;;;5055405;28;20116;-77
2021/07/14 06:58:41;;;;;;;23.17;17.23;;;20.00;94.10;;;;;;5055310;28;20033;-77
2021/07/14 07:01:08;;;;;;;23.85;16.65;;;20.10;94.10;;;;;;5052865;28;20143;-78
2021/07/14 07:03:34;;;;;;;23.27;16.48;;;20.10;94.10;;;;;;5056302;28;20436;-78
2021/07/14 07:06:01;;;;;;;24.20;15.25;;;20.10;94.00;;;;;;5065864;28;20025;-78
2021/07/14 07:08:27;;;;;;;20.08;14.73;;;20.10;93.90;;;;;;5058771;28;20104;-78
2021/07/14 07:10:53;;;;;;;21.65;14.80;;;20.10;93.90;;;;;;5053557;28;20068;-77
2021/07/14 07:13:19;;;;;;;19.10;14.27;;;20.10;93.80;;;;;;5053382;28;20017;-78
2021/07/14 07:15:48;;;;;;;20.35;14.85;;;20.10;93.80;;;;;;5054431;28;20163;-78
2021/07/14 07:18:14;;;;;;;18.13;14.32;;;20.10;93.80;;;;;;5053771;28;20032;-79
2021/07/14 07:20:40;;;;;;;19.77;15.55;;;20.20;93.70;;;;;;5053576;28;20040;-78
2021/07/14 07:23:06;;;;;;;22.88;15.43;;;20.20;93.60;;;;;;5054671;28;20029;-79
2021/07/14 07:25:33;;;;;;;19.02;14.45;;;20.20;93.60;;;;;;5054568;28;20035;-78
2021/07/14 07:28:01;;;;;;;21.58;15.65;;;20.20;93.60;;;;;;5053165;28;20025;-81
2021/07/14 07:30:27;;;;;;;25.27;15.88;;;20.20;93.50;;;;;;5053044;28;20021;-78
2021/07/14 07:32:53;;;;;;;24.17;16.48;;;20.10;93.50;;;;;;5032983;28;20037;-78
2021/07/14 07:35:18;;;;;;;30.33;18.42;;;20.10;93.50;;;;;;5034201;28;20087;-80
2021/07/14 07:37:44;;;;;;;26.15;17.73;;;20.10;93.50;;;;;;5033131;28;20042;-78
2021/07/14 07:40:11;;;;;;;24.60;16.65;;;20.10;93.60;;;;;;5032818;28;20112;-78
2021/07/14 07:42:36;;;;;;;28.73;17.10;;;20.10;93.60;;;;;;5033810;28;20029;-79
2021/07/14 07:45:05;;;;;;;23.63;16.73;;;20.10;93.60;;;;;;5033988;28;20045;-79
2021/07/14 07:47:31;;;;;;;26.60;18.35;;;20.10;93.60;;;;;;5033883;28;20047;-78
2021/07/14 07:49:56;;;;;;;27.40;18.83;;;20.10;93.50;;;;;;5033989;28;20104;-81
2021/07/14 07:52:22;;;;;;;26.02;17.85;;;20.10;93.50;;;;;;5032990;28;20072;-78
2021/07/14 07:54:49;;;;;;;24.42;17.60;;;20.10;93.50;;;;;;5032674;28;20385;-78
2021/07/14 07:57:16;;;;;;;30.90;18.63;;;20.10;93.60;;;;;;5033831;28;20079;-79
2021/07/14 07:59:42;;;;;;;25.40;16.45;;;20.10;93.50;;;;;;5033548;28;20029;-77
2021/07/14 08:02:07;;;;;;;27.58;18.63;;;20.10;93.50;;;;;;5035031;28;20025;-79
2021/07/14 08:04:33;;;;;;;26.65;17.20;;;20.10;93.30;;;;;;5049641;28;20025;-78
2021/07/14 08:06:59;;;;;;;32.00;19.52;;;20.20;93.30;;;;;;5052634;28;20044;-78
2021/07/14 08:09:25;;;;;;;25.80;17.98;;;20.20;93.30;;;;;;5036154;28;20031;-78
2021/07/14 08:11:51;;;;;;;24.95;17.98;;;20.20;93.30;;;;;;5054151;28;20029;-81
2021/07/14 08:14:17;;;;;;;26.83;18.33;;;20.20;93.20;;;;;;5035960;28;20083;-79
2021/07/14 08:16:44;;;;;;;26.92;18.73;;;20.30;93.20;;;;;;5035726;28;20116;-78
2021/07/14 08:19:10;;;;;;;27.08;18.92;;;20.20;93.20;;;;;;5052314;28;20021;-78
2021/07/14 08:21:36;;;;;;;26.65;17.65;;;20.20;93.20;;;;;;5052879;28;20040;-78
2021/07/14 08:24:02;;;;;;;22.10;15.82;;;20.30;93.10;;;;;;5053903;28;20056;-80
2021/07/14 08:26:27;;;;;;;23.60;15.43;;;20.30;93.10;;;;;;5035702;28;20021;-80
2021/07/14 08:28:53;;;;;;;22.73;15.70;;;20.30;93.00;;;;;;5053402;28;20379;-78
2021/07/14 08:31:22;;;;;;;21.08;14.65;;;20.30;92.90;;;;;;5052244;28;20021;-78
2021/07/14 08:33:49;;;;;;;26.17;17.33;;;20.30;92.90;;;;;;5053531;28;20381;-79
2021/07/14 08:36:15;;;;;;;21.80;15.15;;;20.30;92.80;;;;;;5042900;28;20485;-77
2021/07/14 08:38:40;;;;;;;21.42;15.27;;;20.30;92.80;;;;;;5033627;28;20085;-78
2021/07/14 08:41:09;;;;;;;20.80;15.05;;;20.30;92.90;;;;;;5032704;28;20041;-78
2021/07/14 08:43:39;;;;;;;19.80;14.60;;;20.40;92.90;;;;;;5032136;28;20133;-79
2021/07/14 08:46:06;;;;;;;23.27;16.38;;;20.30;92.90;;;;;;5033765;28;20104;-78
2021/07/14 08:48:32;;;;;;;22.45;15.98;;;20.30;92.90;;;;;;5033439;28;20060;-78
2021/07/14 08:50:59;;;;;;;25.40;17.20;;;20.40;92.90;;;;;;5033423;28;20017;-79
2021/07/14 08:53:27;;;;;;;25.50;16.95;;;20.40;93.00;;;;;;5033886;28;20489;-79
2021/07/14 08:55:54;;;;;;;24.02;17.98;;;20.40;92.90;;;;;;5033597;28;20557;-78
2021/07/14 08:58:21;;;;;;;22.80;16.23;;;20.40;92.80;;;;;;5033244;28;20025;-80
2021/07/14 09:00:50;;;;;;;21.40;15.90;;;20.40;92.90;;;;;;5031946;28;20086;-78
2021/07/14 09:03:16;;;;;;;21.30;16.83;;;20.40;92.90;;;;;;5033696;28;20055;-78
2021/07/14 09:05:42;;;;;;;21.30;16.58;;;20.40;92.90;;;;;;5031884;28;20117;-81
2021/07/14 09:08:08;;;;;;;24.13;17.27;;;20.50;92.90;;;;;;5015586;28;20108;-78
2021/07/14 09:10:34;;;;;;;22.60;16.67;;;20.50;92.90;;;;;;5033416;28;20021;-78
2021/07/14 09:13:01;;;;;;;25.90;19.05;;;20.50;92.90;;;;;;5037043;28;20033;-77
2021/07/14 09:15:28;;;;;;;25.92;17.95;;;20.50;92.90;;;;;;5036940;28;20022;-79
2021/07/14 09:18:00;;;;;;;26.20;19.70;;;20.50;92.90;;;;;;5037399;28;20034;-79
2021/07/14 09:20:36;;;;;;;24.08;18.35;;;20.50;92.80;;;;;;5037147;28;20466;-79
2021/07/14 09:23:05;;;;;;;23.65;17.15;;;20.50;92.90;;;;;;5035400;28;20436;-79
2021/07/14 09:25:42;;;;;;;24.85;17.90;;;20.50;92.90;;;;;;5037120;28;20030;-77
2021/07/14 09:28:09;;;;;;;23.88;17.48;;;20.50;93.00;;;;;;5035950;28;20013;-79
2021/07/14 09:30:39;;;;;;;26.35;17.50;;;20.50;93.00;;;;;;5037096;28;20393;-79
2021/07/14 09:33:13;;;;;;;26.20;19.27;;;20.50;93.00;;;;;;5035765;28;20025;-81
2021/07/14 09:35:45;;;;;;;28.83;18.80;;;20.50;93.10;;;;;;5035361;28;20018;-80
2021/07/14 09:38:17;;;;;;;30.42;20.25;;;20.50;93.10;;;;;;5035319;28;20029;-80
2021/07/14 09:41:12;;;;;;;27.67;20.60;;;20.50;93.10;;;;;;5035267;28;20030;-82
2021/07/14 09:43:38;;;;;;;31.27;18.85;;;20.50;93.10;;;;;;5035159;28;20052;-77
2021/07/14 09:46:09;;;;;;;23.55;17.75;;;20.50;93.10;;;;;;5036637;28;20100;-79
2021/07/14 09:48:38;;;;;;;27.20;19.15;;;20.50;93.40;;;;;;5036145;28;20501;-78
2021/07/14 09:51:23;;;;;;;24.20;17.05;;;20.50;93.10;;;;;;5036055;28;20028;-81
2021/07/14 09:53:55;;;;;;;28.35;18.95;;;20.50;93.10;;;;;;5035839;28;20163;-80
2021/07/14 09:56:22;;;;;;;25.60;19.95;;;20.50;93.10;;;;;;5036031;28;20071;-78
2021/07/14 09:59:10;;;;;;;25.20;18.55;;;20.50;93.10;;;;;;5036805;28;20044;-78
2021/07/14 10:01:50;;;;;;;27.25;19.05;;;20.50;93.20;;;;;;5035230;28;20025;-78
2021/07/14 10:04:26;;;;;;;27.73;20.00;;;20.50;93.20;;;;;;5036092;28;20029;-78
2021/07/14 10:07:30;;;;;;;29.23;20.52;;;20.50;93.20;;;;;;5036104;28;20473;-79
2021/07/14 10:10:09;;;;;;;34.42;22.15;;;20.50;93.20;;;;;;5034494;28;20021;-79
2021/07/14 10:12:36;;;;;;;36.75;23.88;;;20.50;93.20;;;;;;5034409;28;20474;-79
2021/07/14 10:15:08;;;;;;;33.10;22.98;;;20.50;93.30;;;;;;5035902;28;20045;-82
2021/07/14 10:17:44;;;;;;;30.63;22.23;;;20.40;93.30;;;;;;5035850;28;20033;-79
2021/07/14 10:20:35;;;;;;;34.75;24.58;;;20.50;93.70;;;;;;5018368;28;20030;-80
2021/07/14 10:23:03;;;;;;;31.23;20.80;;;20.40;93.40;;;;;;5035422;28;20540;-79
2021/07/14 10:25:30;;;;;;;37.45;22.65;;;20.40;93.70;;;;;;5035717;28;20104;-79
2021/07/14 10:27:59;;;;;;;34.60;22.90;;;20.40;93.40;;;;;;5017972;28;20078;-79
2021/07/14 10:30:26;;;;;;;33.58;23.50;;;20.40;93.40;;;;;;5035852;28;20045;-80
2021/07/14 10:32:52;;;;;;;36.95;24.58;;;20.40;93.40;;;;;;5034723;28;20084;-79
2021/07/14 10:35:24;;;;;;;33.90;21.88;;;20.40;93.50;;;;;;5040659;28;20025;-79
2021/07/14 10:38:04;;;;;;;31.25;22.33;;;20.40;93.50;;;;;;5037307;28;20030;-82
2021/07/14 10:40:30;;;;;;;34.97;24.20;;;20.40;93.60;;;;;;5035897;28;20038;-81
2021/07/14 10:42:56;;;;;;;36.40;24.27;;;20.40;93.60;;;;;;5017854;28;20045;-78
2021/07/14 10:45:23;;;;;;;38.53;25.02;;;20.40;93.70;;;;;;5034625;28;20474;-80
2021/07/14 10:47:51;;;;;;;39.33;26.20;;;20.40;93.70;;;;;;5035424;28;20116;-80
2021/07/14 10:50:19;;;;;;;41.53;26.67;;;20.30;93.70;;;;;;5017512;28;20030;-80
2021/07/14 10:52:45;;;;;;;41.85;26.02;;;20.30;93.80;;;;;;5034221;28;20392;-79
2021/07/14 10:55:16;;;;;;;37.25;24.33;;;20.20;93.80;;;;;;5035161;28;20037;-79
2021/07/14 10:57:42;;;;;;;36.17;22.90;;;20.20;93.90;;;;;;5035127;28;20087;-80
2021/07/14 11:00:10;;;;;;;36.97;24.33;;;20.20;93.90;;;;;;5035345;28;20038;-80
2021/07/14 11:02:41;;;;;;;33.25;22.17;;;20.20;93.90;;;;;;5034989;28;20033;-81
2021/07/14 11:05:09;;;;;;;30.30;19.38;;;20.20;94.20;;;;;;5034919;28;20418;-79
2021/07/14 11:07:40;;;;;;;34.03;21.25;;;20.30;94.00;;;;;;5033773;28;20091;-79
2021/07/14 11:10:34;;;;;;;30.58;20.88;;;20.30;93.90;;;;;;5034918;28;20017;-80
2021/07/14 11:13:30;;;;;;;28.33;19.35;;;20.30;93.80;;;;;;5034994;28;20025;-79
2021/07/14 11:15:57;;;;;;;34.90;23.20;;;20.40;93.80;;;;;;5034765;28;20025;-80
2021/07/14 11:18:29;;;;;;;33.92;20.13;;;20.40;93.70;;;;;;5033574;28;20029;-78
2021/07/14 11:20:56;;;;;;;34.53;20.92;;;20.50;93.70;;;;;;5034715;28;20025;-78
2021/07/14 11:23:25;;;;;;;29.48;21.15;;;20.50;93.70;;;;;;5033487;28;20039;-80
2021/07/14 11:25:55;;;;;;;32.13;19.90;;;20.50;93.70;;;;;;5034597;28;20025;-78
2021/07/14 11:28:21;;;;;;;32.08;20.20;;;20.50;93.70;;;;;;5033252;28;20013;-78
2021/07/14 11:30:53;;;;;;;39.50;20.80;;;20.60;93.70;;;;;;5033366;28;20037;-81
2021/07/14 11:33:20;;;;;;;32.15;20.58;;;20.60;93.60;;;;;;5033783;28;20026;-80
2021/07/14 11:35:57;;;;;;;33.35;18.98;;;20.60;93.50;;;;;;5034278;28;20026;-79
2021/07/14 11:38:29;;;;;;;32.03;19.25;;;20.70;93.50;;;;;;5034132;28;20079;-80
2021/07/14 11:41:00;;;;;;;35.58;21.45;;;20.70;93.40;;;;;;5034333;28;20032;-81
2021/07/14 11:43:41;;;;;;;30.58;20.13;;;20.70;93.30;;;;;;5034382;28;20049;-77
2021/07/14 11:46:14;;;;;;;31.63;18.92;;;20.70;93.20;;;;;;5034203;28;20028;-78
2021/07/14 11:48:42;;;;;;;36.20;20.73;;;20.70;93.20;;;;;;5034186;28;20502;-80
2021/07/14 11:51:20;;;;;;;36.55;21.88;;;20.60;93.10;;;;;;5032783;28;20014;-80
2021/07/14 11:53:48;;;;;;;36.08;22.65;;;20.60;93.20;;;;;;5033040;28;20106;-80
2021/07/14 11:56:33;;;;;;;32.20;20.60;;;20.60;93.30;;;;;;5034008;28;20065;-80
2021/07/14 11:58:59;;;;;;;39.00;22.17;;;20.50;93.50;;;;;;5033976;28;20029;-80
2021/07/14 12:01:25;;;;;;;33.38;21.17;;;20.50;93.50;;;;;;5033817;28;20477;-78
2021/07/14 12:04:02;;;;;;;34.25;22.13;;;20.50;93.50;;;;;;5033864;28;20040;-79
2021/07/14 12:06:36;;;;;;;32.22;20.35;;;20.50;93.50;;;;;;5034071;28;20017;-79
2021/07/14 12:09:14;;;;;;;29.05;20.48;;;20.60;93.50;;;;;;5033966;28;20125;-79
2021/07/14 12:11:43;;;;;;;28.55;19.30;;;20.60;93.40;;;;;;5032533;28;20116;-80
2021/07/14 12:14:15;;;;;;;27.80;19.35;;;20.60;93.40;;;;;;5032528;28;20116;-78
2021/07/14 12:16:48;;;;;;;28.08;17.63;;;20.60;93.30;;;;;;5033844;28;20033;-78
2021/07/14 12:19:23;;;;;;;32.70;20.15;;;20.70;93.30;;;;;;5033777;28;20061;-79
2021/07/14 12:21:50;;;;;;;28.73;19.40;;;20.70;93.30;;;;;;5032613;28;20025;-80
2021/07/14 12:24:31;;;;;;;32.13;20.05;;;20.70;93.30;;;;;;5033581;28;20037;-79
2021/07/14 12:27:13;;;;;;;30.73;19.80;;;20.70;93.20;;;;;;5033837;28;20040;-78
2021/07/14 12:29:40;;;;;;;29.73;20.02;;;20.70;93.30;;;;;;5033580;28;20013;-82
2021/07/14 12:32:06;;;;;;;28.08;19.58;;;20.70;93.20;;;;;;5016071;28;20116;-80
2021/07/14 12:34:33;;;;;;;27.98;18.27;;;20.70;93.20;;;;;;5032278;28;20083;-79
2021/07/14 12:37:00;;;;;;;32.47;20.30;;;20.70;93.20;;;;;;5039552;28;20040;-79
2021/07/14 12:39:36;;;;;;;28.38;18.85;;;20.80;93.20;;;;;;5047296;28;20037;-78
2021/07/14 12:42:07;;;;;;;24.38;17.23;;;20.80;93.10;;;;;;5052934;28;20052;-80
2021/07/14 12:44:34;;;;;;;28.05;17.17;;;20.80;93.10;;;;;;5053383;28;20461;-77
2021/07/14 12:47:21;;;;;;;26.00;16.90;;;20.90;93.10;;;;;;5060192;28;20044;-79